sensor_id;sensor_type;location;lat;lon;timestamp;temperature;humidity
75688;HTU21D;64300;45.034;38.910;2022-10-16T00:00:36;10.92;61.60
75688;HTU21D;64300;45.034;38.910;2022-10-16T00:03:05;10.87;62.24
75688;HTU21D;64300;45.034;38.910;2022-10-16T00:05:31;10.84;63.46
75688;HTU21D;64300;45.034;38.910;2022-10-16T00:07:58;10.85;62.95
75688;HTU21D;64300;45.034;38.910;2022-10-16T00:10:24;10.84;62.85
75688;HTU21D;64300;45.034;38.910;2022-10-16T00:12:50;10.84;62.25
75688;HTU21D;64300;45.034;38.910;2022-10-16T00:15:19;10.84;62.66
75688;HTU21D;64300;45.034;38.910;2022-10-16T00:17:45;10.85;62.31
75688;HTU21D;64300;45.034;38.910;2022-10-16T00:20:11;10.87;62.11
75688;HTU21D;64300;45.034;38.910;2022-10-16T00:22:37;10.81;62.41
75688;HTU21D;64300;45.034;38.910;2022-10-16T00:25:03;10.82;62.32
75688;HTU21D;64300;45.034;38.910;2022-10-16T00:27:30;10.84;62.21
75688;HTU21D;64300;45.034;38.910;2022-10-16T00:29:57;10.81;62.27
75688;HTU21D;64300;45.034;38.910;2022-10-16T00:32:24;10.75;62.68
75688;HTU21D;64300;45.034;38.910;2022-10-16T00:34:50;10.78;62.28
75688;HTU21D;64300;45.034;38.910;2022-10-16T00:37:16;10.73;62.47
75688;HTU21D;64300;45.034;38.910;2022-10-16T00:39:42;10.68;63.73
75688;HTU21D;64300;45.034;38.910;2022-10-16T00:42:15;10.75;62.70
75688;HTU21D;64300;45.034;38.910;2022-10-16T00:47:15;10.70;62.89
75688;HTU21D;64300;45.034;38.910;2022-10-16T00:49:43;10.68;62.96
75688;HTU21D;64300;45.034;38.910;2022-10-16T00:52:09;10.69;62.85
75688;HTU21D;64300;45.034;38.910;2022-10-16T00:54:36;10.68;62.94
75688;HTU21D;64300;45.034;38.910;2022-10-16T00:57:05;10.69;63.24
75688;HTU21D;64300;45.034;38.910;2022-10-16T00:59:40;10.68;63.57
75688;HTU21D;64300;45.034;38.910;2022-10-16T01:02:10;10.67;63.10
75688;HTU21D;64300;45.034;38.910;2022-10-16T01:04:49;10.68;62.86
75688;HTU21D;64300;45.034;38.910;2022-10-16T01:12:52;10.64;63.89
75688;HTU21D;64300;45.034;38.910;2022-10-16T01:15:47;10.65;63.38
75688;HTU21D;64300;45.034;38.910;2022-10-16T01:21:05;10.58;63.86
75688;HTU21D;64300;45.034;38.910;2022-10-16T01:23:51;10.62;63.78
75688;HTU21D;64300;45.034;38.910;2022-10-16T01:32:02;10.60;63.92
75688;HTU21D;64300;45.034;38.910;2022-10-16T01:35:10;10.60;63.81
75688;HTU21D;64300;45.034;38.910;2022-10-16T01:37:44;10.55;65.02
75688;HTU21D;64300;45.034;38.910;2022-10-16T01:40:15;10.55;63.84
75688;HTU21D;64300;45.034;38.910;2022-10-16T01:42:48;10.53;63.98
75688;HTU21D;64300;45.034;38.910;2022-10-16T01:45:17;10.53;64.18
75688;HTU21D;64300;45.034;38.910;2022-10-16T01:47:45;10.57;63.96
75688;HTU21D;64300;45.034;38.910;2022-10-16T01:50:15;10.58;63.79
75688;HTU21D;64300;45.034;38.910;2022-10-16T01:52:44;10.57;63.71
75688;HTU21D;64300;45.034;38.910;2022-10-16T01:55:13;10.54;63.91
75688;HTU21D;64300;45.034;38.910;2022-10-16T01:57:42;10.52;63.75
75688;HTU21D;64300;45.034;38.910;2022-10-16T02:00:12;10.48;64.35
75688;HTU21D;64300;45.034;38.910;2022-10-16T02:02:45;10.50;64.01
75688;HTU21D;64300;45.034;38.910;2022-10-16T02:05:30;10.45;65.35
75688;HTU21D;64300;45.034;38.910;2022-10-16T02:07:57;10.49;64.05
75688;HTU21D;64300;45.034;38.910;2022-10-16T02:10:24;10.49;63.98
75688;HTU21D;64300;45.034;38.910;2022-10-16T02:12:58;10.46;64.03
75688;HTU21D;64300;45.034;38.910;2022-10-16T02:15:25;10.45;63.89
75688;HTU21D;64300;45.034;38.910;2022-10-16T02:17:51;10.42;64.11
75688;HTU21D;64300;45.034;38.910;2022-10-16T02:20:19;10.40;64.21
75688;HTU21D;64300;45.034;38.910;2022-10-16T02:22:50;10.37;64.28
75688;HTU21D;64300;45.034;38.910;2022-10-16T02:25:37;10.35;64.55
75688;HTU21D;64300;45.034;38.910;2022-10-16T02:28:13;10.29;64.75
75688;HTU21D;64300;45.034;38.910;2022-10-16T02:30:50;10.30;64.54
75688;HTU21D;64300;45.034;38.910;2022-10-16T02:33:19;10.29;64.45
75688;HTU21D;64300;45.034;38.910;2022-10-16T02:35:48;10.24;64.88
75688;HTU21D;64300;45.034;38.910;2022-10-16T02:38:17;10.27;64.91
75688;HTU21D;64300;45.034;38.910;2022-10-16T02:40:43;10.26;65.01
75688;HTU21D;64300;45.034;38.910;2022-10-16T02:43:10;10.24;65.14
75688;HTU21D;64300;45.034;38.910;2022-10-16T02:45:37;10.24;65.01
75688;HTU21D;64300;45.034;38.910;2022-10-16T02:48:03;10.24;65.17
75688;HTU21D;64300;45.034;38.910;2022-10-16T02:50:29;10.22;65.28
75688;HTU21D;64300;45.034;38.910;2022-10-16T02:52:55;10.23;65.38
75688;HTU21D;64300;45.034;38.910;2022-10-16T02:55:21;10.22;65.50
75688;HTU21D;64300;45.034;38.910;2022-10-16T02:57:47;10.23;65.41
75688;HTU21D;64300;45.034;38.910;2022-10-16T03:00:16;10.23;65.56
75688;HTU21D;64300;45.034;38.910;2022-10-16T03:02:43;10.23;65.61
75688;HTU21D;64300;45.034;38.910;2022-10-16T03:05:10;10.22;65.51
75688;HTU21D;64300;45.034;38.910;2022-10-16T03:07:36;10.21;66.04
75688;HTU21D;64300;45.034;38.910;2022-10-16T03:10:02;10.21;65.82
75688;HTU21D;64300;45.034;38.910;2022-10-16T03:12:29;10.21;66.81
75688;HTU21D;64300;45.034;38.910;2022-10-16T03:14:55;10.23;66.13
75688;HTU21D;64300;45.034;38.910;2022-10-16T03:17:22;10.22;66.47
75688;HTU21D;64300;45.034;38.910;2022-10-16T03:19:49;10.19;66.72
75688;HTU21D;64300;45.034;38.910;2022-10-16T03:22:15;10.21;66.57
75688;HTU21D;64300;45.034;38.910;2022-10-16T03:24:41;10.21;66.97
75688;HTU21D;64300;45.034;38.910;2022-10-16T03:27:07;10.22;66.96
75688;HTU21D;64300;45.034;38.910;2022-10-16T03:29:33;10.21;67.10
75688;HTU21D;64300;45.034;38.910;2022-10-16T03:31:59;10.19;67.23
75688;HTU21D;64300;45.034;38.910;2022-10-16T03:34:27;10.21;67.52
75688;HTU21D;64300;45.034;38.910;2022-10-16T03:36:53;10.22;67.82
75688;HTU21D;64300;45.034;38.910;2022-10-16T03:39:19;10.22;68.02
75688;HTU21D;64300;45.034;38.910;2022-10-16T03:41:45;10.28;67.92
75688;HTU21D;64300;45.034;38.910;2022-10-16T03:44:14;10.23;68.96
75688;HTU21D;64300;45.034;38.910;2022-10-16T03:46:40;10.28;67.71
75688;HTU21D;64300;45.034;38.910;2022-10-16T03:49:06;10.29;67.91
75688;HTU21D;64300;45.034;38.910;2022-10-16T03:51:32;10.28;67.77
75688;HTU21D;64300;45.034;38.910;2022-10-16T03:53:58;10.27;67.94
75688;HTU21D;64300;45.034;38.910;2022-10-16T03:56:25;10.28;68.14
75688;HTU21D;64300;45.034;38.910;2022-10-16T03:58:51;10.29;68.28
75688;HTU21D;64300;45.034;38.910;2022-10-16T04:01:17;10.28;68.72
75688;HTU21D;64300;45.034;38.910;2022-10-16T04:03:42;10.31;70.74
75688;HTU21D;64300;45.034;38.910;2022-10-16T04:06:08;10.33;68.55
75688;HTU21D;64300;45.034;38.910;2022-10-16T04:08:34;10.37;68.20
75688;HTU21D;64300;45.034;38.910;2022-10-16T04:11:03;10.39;68.50
75688;HTU21D;64300;45.034;38.910;2022-10-16T04:13:28;10.41;68.59
75688;HTU21D;64300;45.034;38.910;2022-10-16T04:15:54;10.45;68.50
75688;HTU21D;64300;45.034;38.910;2022-10-16T04:18:21;10.45;70.37
75688;HTU21D;64300;45.034;38.910;2022-10-16T04:20:48;10.50;68.75
75688;HTU21D;64300;45.034;38.910;2022-10-16T04:23:13;10.54;68.94
75688;HTU21D;64300;45.034;38.910;2022-10-16T04:25:39;10.59;68.60
75688;HTU21D;64300;45.034;38.910;2022-10-16T04:28:05;10.64;68.45
75688;HTU21D;64300;45.034;38.910;2022-10-16T04:30:38;10.66;70.43
75688;HTU21D;64300;45.034;38.910;2022-10-16T04:33:05;10.71;68.95
75688;HTU21D;64300;45.034;38.910;2022-10-16T04:35:30;10.81;68.71
75688;HTU21D;64300;45.034;38.910;2022-10-16T04:37:59;10.86;68.42
75688;HTU21D;64300;45.034;38.910;2022-10-16T04:40:25;10.83;69.78
75688;HTU21D;64300;45.034;38.910;2022-10-16T04:42:51;10.92;68.72
75688;HTU21D;64300;45.034;38.910;2022-10-16T04:45:17;10.98;68.30
75688;HTU21D;64300;45.034;38.910;2022-10-16T04:47:43;11.01;68.20
75688;HTU21D;64300;45.034;38.910;2022-10-16T04:50:12;11.04;68.24
75688;HTU21D;64300;45.034;38.910;2022-10-16T04:52:38;11.07;68.56
75688;HTU21D;64300;45.034;38.910;2022-10-16T04:55:07;11.12;68.07
75688;HTU21D;64300;45.034;38.910;2022-10-16T04:57:33;11.16;67.91
75688;HTU21D;64300;45.034;38.910;2022-10-16T04:59:59;11.17;68.03
75688;HTU21D;64300;45.034;38.910;2022-10-16T05:02:25;11.23;67.94
75688;HTU21D;64300;45.034;38.910;2022-10-16T05:04:51;11.25;67.94
75688;HTU21D;64300;45.034;38.910;2022-10-16T05:07:18;11.30;67.82
75688;HTU21D;64300;45.034;38.910;2022-10-16T05:09:44;11.34;67.59
75688;HTU21D;64300;45.034;38.910;2022-10-16T05:12:10;11.39;67.93
75688;HTU21D;64300;45.034;38.910;2022-10-16T05:14:36;11.45;67.83
75688;HTU21D;64300;45.034;38.910;2022-10-16T05:17:02;11.56;67.53
75688;HTU21D;64300;45.034;38.910;2022-10-16T05:19:28;11.63;67.40
75688;HTU21D;64300;45.034;38.910;2022-10-16T05:21:55;11.72;67.24
75688;HTU21D;64300;45.034;38.910;2022-10-16T05:24:21;11.79;67.14
75688;HTU21D;64300;45.034;38.910;2022-10-16T05:26:48;11.85;67.01
75688;HTU21D;64300;45.034;38.910;2022-10-16T05:29:14;11.82;67.98
75688;HTU21D;64300;45.034;38.910;2022-10-16T05:31:42;11.91;67.33
75688;HTU21D;64300;45.034;38.910;2022-10-16T05:34:08;12.01;67.10
75688;HTU21D;64300;45.034;38.910;2022-10-16T05:36:34;12.06;67.34
75688;HTU21D;64300;45.034;38.910;2022-10-16T05:39:00;12.21;67.02
75688;HTU21D;64300;45.034;38.910;2022-10-16T05:41:26;12.33;66.95
75688;HTU21D;64300;45.034;38.910;2022-10-16T05:43:55;12.43;66.75
75688;HTU21D;64300;45.034;38.910;2022-10-16T05:46:21;12.51;66.62
75688;HTU21D;64300;45.034;38.910;2022-10-16T05:48:47;12.62;66.60
75688;HTU21D;64300;45.034;38.910;2022-10-16T05:51:14;12.72;66.63
75688;HTU21D;64300;45.034;38.910;2022-10-16T05:53:41;12.85;66.48
75688;HTU21D;64300;45.034;38.910;2022-10-16T05:56:09;12.99;66.30
75688;HTU21D;64300;45.034;38.910;2022-10-16T05:58:39;13.07;66.28
75688;HTU21D;64300;45.034;38.910;2022-10-16T06:01:18;13.18;66.34
75688;HTU21D;64300;45.034;38.910;2022-10-16T06:03:44;13.22;66.24
75688;HTU21D;64300;45.034;38.910;2022-10-16T06:06:12;13.26;66.17
75688;HTU21D;64300;45.034;38.910;2022-10-16T06:08:40;13.34;66.17
75688;HTU21D;64300;45.034;38.910;2022-10-16T06:11:12;13.39;66.21
75688;HTU21D;64300;45.034;38.910;2022-10-16T06:13:38;13.44;66.25
75688;HTU21D;64300;45.034;38.910;2022-10-16T06:16:08;13.47;67.33
75688;HTU21D;64300;45.034;38.910;2022-10-16T06:18:35;13.56;66.40
75688;HTU21D;64300;45.034;38.910;2022-10-16T06:21:16;13.66;66.37
75688;HTU21D;64300;45.034;38.910;2022-10-16T06:23:42;13.71;66.43
75688;HTU21D;64300;45.034;38.910;2022-10-16T06:26:11;13.78;66.43
75688;HTU21D;64300;45.034;38.910;2022-10-16T06:28:38;13.86;66.27
75688;HTU21D;64300;45.034;38.910;2022-10-16T06:31:06;13.94;66.20
75688;HTU21D;64300;45.034;38.910;2022-10-16T06:33:32;14.03;66.07
75688;HTU21D;64300;45.034;38.910;2022-10-16T06:36:02;14.09;65.96
75688;HTU21D;64300;45.034;38.910;2022-10-16T06:38:29;14.14;66.00
75688;HTU21D;64300;45.034;38.910;2022-10-16T06:40:58;14.23;65.88
75688;HTU21D;64300;45.034;38.910;2022-10-16T06:43:25;14.30;65.78
75688;HTU21D;64300;45.034;38.910;2022-10-16T06:45:55;14.34;65.87
75688;HTU21D;64300;45.034;38.910;2022-10-16T06:48:22;14.42;65.79
75688;HTU21D;64300;45.034;38.910;2022-10-16T06:51:04;14.53;65.63
75688;HTU21D;64300;45.034;38.910;2022-10-16T06:53:32;14.59;65.88
75688;HTU21D;64300;45.034;38.910;2022-10-16T06:56:07;14.72;65.86
75688;HTU21D;64300;45.034;38.910;2022-10-16T06:58:33;14.87;65.66
75688;HTU21D;64300;45.034;38.910;2022-10-16T07:00:59;14.98;65.57
75688;HTU21D;64300;45.034;38.910;2022-10-16T07:03:25;15.11;65.49
75688;HTU21D;64300;45.034;38.910;2022-10-16T07:05:51;15.24;65.30
75688;HTU21D;64300;45.034;38.910;2022-10-16T07:08:17;15.37;65.08
75688;HTU21D;64300;45.034;38.910;2022-10-16T07:10:48;15.47;64.90
75688;HTU21D;64300;45.034;38.910;2022-10-16T07:13:23;15.52;64.75
75688;HTU21D;64300;45.034;38.910;2022-10-16T07:15:49;15.61;64.59
75688;HTU21D;64300;45.034;38.910;2022-10-16T07:18:15;15.68;64.56
75688;HTU21D;64300;45.034;38.910;2022-10-16T07:20:41;15.75;64.37
75688;HTU21D;64300;45.034;38.910;2022-10-16T07:23:07;15.80;64.31
75688;HTU21D;64300;45.034;38.910;2022-10-16T07:25:33;15.89;64.21
75688;HTU21D;64300;45.034;38.910;2022-10-16T07:27:58;16.01;63.97
75688;HTU21D;64300;45.034;38.910;2022-10-16T07:30:25;16.13;63.57
75688;HTU21D;64300;45.034;38.910;2022-10-16T07:32:51;16.22;63.23
75688;HTU21D;64300;45.034;38.910;2022-10-16T07:35:17;16.30;63.06
75688;HTU21D;64300;45.034;38.910;2022-10-16T07:37:46;16.37;62.76
75688;HTU21D;64300;45.034;38.910;2022-10-16T07:40:18;16.44;62.59
75688;HTU21D;64300;45.034;38.910;2022-10-16T07:42:44;16.51;62.54
75688;HTU21D;64300;45.034;38.910;2022-10-16T07:45:10;16.61;62.46
75688;HTU21D;64300;45.034;38.910;2022-10-16T07:47:36;16.71;62.13
75688;HTU21D;64300;45.034;38.910;2022-10-16T07:50:02;16.71;61.52
75688;HTU21D;64300;45.034;38.910;2022-10-16T07:52:28;16.76;61.72
75688;HTU21D;64300;45.034;38.910;2022-10-16T07:54:54;16.78;61.60
75688;HTU21D;64300;45.034;38.910;2022-10-16T07:57:30;16.80;61.50
75688;HTU21D;64300;45.034;38.910;2022-10-16T07:59:56;16.76;61.41
75688;HTU21D;64300;45.034;38.910;2022-10-16T08:02:22;16.81;61.48
75688;HTU21D;64300;45.034;38.910;2022-10-16T08:04:48;16.80;61.53
75688;HTU21D;64300;45.034;38.910;2022-10-16T08:07:15;16.90;61.48
75688;HTU21D;64300;45.034;38.910;2022-10-16T08:09:41;16.96;61.37
75688;HTU21D;64300;45.034;38.910;2022-10-16T08:12:10;17.02;61.47
75688;HTU21D;64300;45.034;38.910;2022-10-16T08:14:36;17.07;61.34
75688;HTU21D;64300;45.034;38.910;2022-10-16T08:17:05;17.17;61.30
75688;HTU21D;64300;45.034;38.910;2022-10-16T08:19:34;17.22;61.18
75688;HTU21D;64300;45.034;38.910;2022-10-16T08:22:00;17.28;61.21
75688;HTU21D;64300;45.034;38.910;2022-10-16T08:24:27;17.30;61.15
75688;HTU21D;64300;45.034;38.910;2022-10-16T08:26:56;17.34;61.15
75688;HTU21D;64300;45.034;38.910;2022-10-16T08:29:23;17.43;61.09
75688;HTU21D;64300;45.034;38.910;2022-10-16T08:31:49;17.54;60.83
75688;HTU21D;64300;45.034;38.910;2022-10-16T08:34:15;17.58;60.73
75688;HTU21D;64300;45.034;38.910;2022-10-16T08:36:41;17.63;60.60
75688;HTU21D;64300;45.034;38.910;2022-10-16T08:39:07;17.69;60.55
75688;HTU21D;64300;45.034;38.910;2022-10-16T08:41:56;17.76;60.43
75688;HTU21D;64300;45.034;38.910;2022-10-16T08:47:22;17.91;60.15
75688;HTU21D;64300;45.034;38.910;2022-10-16T08:50:00;17.93;60.08
75688;HTU21D;64300;45.034;38.910;2022-10-16T08:52:33;18.08;60.03
75688;HTU21D;64300;45.034;38.910;2022-10-16T08:55:01;18.26;59.96
75688;HTU21D;64300;45.034;38.910;2022-10-16T08:57:28;18.42;59.53
75688;HTU21D;64300;45.034;38.910;2022-10-16T09:00:00;18.56;58.95
75688;HTU21D;64300;45.034;38.910;2022-10-16T09:02:40;18.69;58.90
75688;HTU21D;64300;45.034;38.910;2022-10-16T09:05:37;18.85;58.75
75688;HTU21D;64300;45.034;38.910;2022-10-16T09:08:16;19.05;58.40
75688;HTU21D;64300;45.034;38.910;2022-10-16T09:10:59;19.25;57.58
75688;HTU21D;64300;45.034;38.910;2022-10-16T09:21:33;19.88;55.48
75688;HTU21D;64300;45.034;38.910;2022-10-16T09:24:35;19.95;54.78
75688;HTU21D;64300;45.034;38.910;2022-10-16T09:27:02;19.86;54.73
75688;HTU21D;64300;45.034;38.910;2022-10-16T09:29:28;19.87;54.96
75688;HTU21D;64300;45.034;38.910;2022-10-16T09:31:55;19.87;54.17
75688;HTU21D;64300;45.034;38.910;2022-10-16T09:42:34;19.77;55.04
75688;HTU21D;64300;45.034;38.910;2022-10-16T09:45:04;19.77;55.07
75688;HTU21D;64300;45.034;38.910;2022-10-16T09:47:31;19.71;54.81
75688;HTU21D;64300;45.034;38.910;2022-10-16T09:53:12;19.59;54.25
75688;HTU21D;64300;45.034;38.910;2022-10-16T09:55:50;19.68;54.87
75688;HTU21D;64300;45.034;38.910;2022-10-16T09:58:16;19.63;54.89
75688;HTU21D;64300;45.034;38.910;2022-10-16T10:00:51;19.52;54.89
75688;HTU21D;64300;45.034;38.910;2022-10-16T10:03:42;19.51;55.15
75688;HTU21D;64300;45.034;38.910;2022-10-16T10:09:00;19.36;55.26
75688;HTU21D;64300;45.034;38.910;2022-10-16T10:11:54;19.40;55.49
75688;HTU21D;64300;45.034;38.910;2022-10-16T10:19:54;19.39;55.27
75688;HTU21D;64300;45.034;38.910;2022-10-16T10:28:39;19.54;55.27
75688;HTU21D;64300;45.034;38.910;2022-10-16T10:31:20;19.53;54.59
75688;HTU21D;64300;45.034;38.910;2022-10-16T10:34:01;19.57;55.08
75688;HTU21D;64300;45.034;38.910;2022-10-16T10:36:39;19.57;54.84
75688;HTU21D;64300;45.034;38.910;2022-10-16T10:39:08;19.58;54.88
75688;HTU21D;64300;45.034;38.910;2022-10-16T10:47:12;19.63;54.58
75688;HTU21D;64300;45.034;38.910;2022-10-16T10:52:53;19.50;54.99
75688;HTU21D;64300;45.034;38.910;2022-10-16T11:04:25;19.37;54.92
75688;HTU21D;64300;45.034;38.910;2022-10-16T11:07:18;19.32;54.81
75688;HTU21D;64300;45.034;38.910;2022-10-16T11:09:52;19.31;54.91
75688;HTU21D;64300;45.034;38.910;2022-10-16T11:12:29;19.27;55.12
75688;HTU21D;64300;45.034;38.910;2022-10-16T11:17:54;19.24;55.00
75688;HTU21D;64300;45.034;38.910;2022-10-16T11:20:26;19.16;55.26
75688;HTU21D;64300;45.034;38.910;2022-10-16T11:23:00;19.20;55.17
75688;HTU21D;64300;45.034;38.910;2022-10-16T11:25:30;19.23;55.00
75688;HTU21D;64300;45.034;38.910;2022-10-16T11:28:20;19.23;54.84
75688;HTU21D;64300;45.034;38.910;2022-10-16T11:31:00;19.25;55.10
75688;HTU21D;64300;45.034;38.910;2022-10-16T11:36:39;19.33;54.91
75688;HTU21D;64300;45.034;38.910;2022-10-16T11:39:21;19.39;54.88
75688;HTU21D;64300;45.034;38.910;2022-10-16T11:42:11;19.45;54.93
75688;HTU21D;64300;45.034;38.910;2022-10-16T11:47:37;19.52;54.41
75688;HTU21D;64300;45.034;38.910;2022-10-16T11:50:37;19.55;54.59
75688;HTU21D;64300;45.034;38.910;2022-10-16T11:56:04;19.60;54.46
75688;HTU21D;64300;45.034;38.910;2022-10-16T11:58:58;19.63;54.39
75688;HTU21D;64300;45.034;38.910;2022-10-16T12:01:44;19.66;54.31
75688;HTU21D;64300;45.034;38.910;2022-10-16T12:04:53;19.66;54.20
75688;HTU21D;64300;45.034;38.910;2022-10-16T12:07:36;19.65;54.36
75688;HTU21D;64300;45.034;38.910;2022-10-16T12:10:22;19.67;54.31
75688;HTU21D;64300;45.034;38.910;2022-10-16T12:12:48;19.66;54.24
75688;HTU21D;64300;45.034;38.910;2022-10-16T12:17:46;19.60;54.26
75688;HTU21D;64300;45.034;38.910;2022-10-16T12:20:26;19.60;54.22
75688;HTU21D;64300;45.034;38.910;2022-10-16T12:23:01;19.58;54.27
75688;HTU21D;64300;45.034;38.910;2022-10-16T12:25:37;19.59;54.24
75688;HTU21D;64300;45.034;38.910;2022-10-16T12:28:21;19.58;54.27
75688;HTU21D;64300;45.034;38.910;2022-10-16T12:30:56;19.51;54.10
75688;HTU21D;64300;45.034;38.910;2022-10-16T12:33:29;19.42;54.25
75688;HTU21D;64300;45.034;38.910;2022-10-16T12:35:58;19.44;54.49
75688;HTU21D;64300;45.034;38.910;2022-10-16T12:38:31;19.44;54.58
75688;HTU21D;64300;45.034;38.910;2022-10-16T12:41:08;19.43;54.49
75688;HTU21D;64300;45.034;38.910;2022-10-16T12:43:46;19.42;54.64
75688;HTU21D;64300;45.034;38.910;2022-10-16T12:48:40;19.35;54.75
75688;HTU21D;64300;45.034;38.910;2022-10-16T12:51:33;19.29;55.08
75688;HTU21D;64300;45.034;38.910;2022-10-16T13:01:32;19.14;55.20
75688;HTU21D;64300;45.034;38.910;2022-10-16T13:06:39;19.03;55.49
75688;HTU21D;64300;45.034;38.910;2022-10-16T13:22:35;18.73;56.42
75688;HTU21D;64300;45.034;38.910;2022-10-16T13:39:26;18.41;57.10
75688;HTU21D;64300;45.034;38.910;2022-10-16T13:42:09;18.34;57.26
75688;HTU21D;64300;45.034;38.910;2022-10-16T13:44:44;18.28;57.78
75688;HTU21D;64300;45.034;38.910;2022-10-16T13:47:17;18.27;57.37
75688;HTU21D;64300;45.034;38.910;2022-10-16T13:49:44;18.24;57.49
75688;HTU21D;64300;45.034;38.910;2022-10-16T13:52:20;18.22;57.61
75688;HTU21D;64300;45.034;38.910;2022-10-16T13:54:47;18.10;57.81
75688;HTU21D;64300;45.034;38.910;2022-10-16T13:57:23;18.08;57.70
75688;HTU21D;64300;45.034;38.910;2022-10-16T13:59:50;18.03;57.59
75688;HTU21D;64300;45.034;38.910;2022-10-16T14:02:35;17.94;57.65
75688;HTU21D;64300;45.034;38.910;2022-10-16T14:05:04;17.91;57.61
75688;HTU21D;64300;45.034;38.910;2022-10-16T14:07:42;17.85;57.42
75688;HTU21D;64300;45.034;38.910;2022-10-16T14:10:27;17.77;57.55
75688;HTU21D;64300;45.034;38.910;2022-10-16T14:13:02;17.74;57.46
75688;HTU21D;64300;45.034;38.910;2022-10-16T14:15:30;17.67;57.64
75688;HTU21D;64300;45.034;38.910;2022-10-16T14:17:57;17.58;57.67
75688;HTU21D;64300;45.034;38.910;2022-10-16T14:20:26;17.52;57.62
75688;HTU21D;64300;45.034;38.910;2022-10-16T14:23:23;17.49;57.58
75688;HTU21D;64300;45.034;38.910;2022-10-16T14:25:54;17.45;57.58
75688;HTU21D;64300;45.034;38.910;2022-10-16T14:28:23;17.37;57.76
75688;HTU21D;64300;45.034;38.910;2022-10-16T14:30:56;17.34;57.74
75688;HTU21D;64300;45.034;38.910;2022-10-16T14:33:33;17.32;57.71
75688;HTU21D;64300;45.034;38.910;2022-10-16T14:36:06;17.25;57.93
75688;HTU21D;64300;45.034;38.910;2022-10-16T14:38:38;17.21;57.96
75688;HTU21D;64300;45.034;38.910;2022-10-16T14:41:05;17.09;58.46
75688;HTU21D;64300;45.034;38.910;2022-10-16T14:43:34;17.13;58.23
75688;HTU21D;64300;45.034;38.910;2022-10-16T14:46:29;17.10;58.33
75688;HTU21D;64300;45.034;38.910;2022-10-16T14:51:41;16.99;58.80
75688;HTU21D;64300;45.034;38.910;2022-10-16T14:54:08;16.89;59.93
75688;HTU21D;64300;45.034;38.910;2022-10-16T14:59:16;16.90;59.15
75688;HTU21D;64300;45.034;38.910;2022-10-16T15:01:44;16.86;59.96
75688;HTU21D;64300;45.034;38.910;2022-10-16T15:04:12;16.79;60.44
75688;HTU21D;64300;45.034;38.910;2022-10-16T15:06:38;16.84;59.98
75688;HTU21D;64300;45.034;38.910;2022-10-16T15:09:04;16.84;59.93
75688;HTU21D;64300;45.034;38.910;2022-10-16T15:11:31;16.78;60.26
75688;HTU21D;64300;45.034;38.910;2022-10-16T15:13:58;16.75;60.51
75688;HTU21D;64300;45.034;38.910;2022-10-16T15:16:24;16.74;60.51
75688;HTU21D;64300;45.034;38.910;2022-10-16T15:18:50;16.70;60.67
75688;HTU21D;64300;45.034;38.910;2022-10-16T15:21:30;16.72;60.47
75688;HTU21D;64300;45.034;38.910;2022-10-16T15:23:57;16.69;60.67
75688;HTU21D;64300;45.034;38.910;2022-10-16T15:26:28;16.61;61.02
75688;HTU21D;64300;45.034;38.910;2022-10-16T15:28:54;16.62;60.80
75688;HTU21D;64300;45.034;38.910;2022-10-16T15:31:21;16.62;60.70
75688;HTU21D;64300;45.034;38.910;2022-10-16T15:33:52;16.60;60.70
75688;HTU21D;64300;45.034;38.910;2022-10-16T15:36:30;16.58;60.65
75688;HTU21D;64300;45.034;38.910;2022-10-16T15:38:56;16.54;60.76
75688;HTU21D;64300;45.034;38.910;2022-10-16T15:41:22;16.46;61.12
75688;HTU21D;64300;45.034;38.910;2022-10-16T15:43:49;16.48;61.02
75688;HTU21D;64300;45.034;38.910;2022-10-16T15:46:19;16.49;60.99
75688;HTU21D;64300;45.034;38.910;2022-10-16T15:48:46;16.45;61.20
75688;HTU21D;64300;45.034;38.910;2022-10-16T15:51:15;16.45;61.05
75688;HTU21D;64300;45.034;38.910;2022-10-16T15:53:42;16.41;61.25
75688;HTU21D;64300;45.034;38.910;2022-10-16T15:56:09;16.43;61.02
75688;HTU21D;64300;45.034;38.910;2022-10-16T15:58:37;16.39;61.25
75688;HTU21D;64300;45.034;38.910;2022-10-16T16:01:03;16.37;61.26
75688;HTU21D;64300;45.034;38.910;2022-10-16T16:03:30;16.37;61.27
75688;HTU21D;64300;45.034;38.910;2022-10-16T16:05:58;16.33;61.67
75688;HTU21D;64300;45.034;38.910;2022-10-16T16:08:24;16.31;61.55
75688;HTU21D;64300;45.034;38.910;2022-10-16T16:11:00;16.31;62.60
75688;HTU21D;64300;45.034;38.910;2022-10-16T16:13:27;16.31;61.76
75688;HTU21D;64300;45.034;38.910;2022-10-16T16:15:53;16.25;62.28
75688;HTU21D;64300;45.034;38.910;2022-10-16T16:18:19;16.28;62.79
75688;HTU21D;64300;45.034;38.910;2022-10-16T16:20:45;16.28;62.47
75688;HTU21D;64300;45.034;38.910;2022-10-16T16:23:11;16.27;62.66
75688;HTU21D;64300;45.034;38.910;2022-10-16T16:25:37;16.27;62.63
75688;HTU21D;64300;45.034;38.910;2022-10-16T16:28:03;16.26;62.70
75688;HTU21D;64300;45.034;38.910;2022-10-16T16:30:29;16.25;63.15
75688;HTU21D;64300;45.034;38.910;2022-10-16T16:32:55;16.27;63.08
75688;HTU21D;64300;45.034;38.910;2022-10-16T16:35:22;16.24;63.31
75688;HTU21D;64300;45.034;38.910;2022-10-16T16:37:48;16.24;63.60
75688;HTU21D;64300;45.034;38.910;2022-10-16T16:40:14;16.25;63.48
75688;HTU21D;64300;45.034;38.910;2022-10-16T16:42:40;16.24;63.56
75688;HTU21D;64300;45.034;38.910;2022-10-16T16:45:07;16.24;63.76
75688;HTU21D;64300;45.034;38.910;2022-10-16T16:47:33;16.22;63.67
75688;HTU21D;64300;45.034;38.910;2022-10-16T16:49:59;16.21;63.89
75688;HTU21D;64300;45.034;38.910;2022-10-16T16:52:25;16.19;63.98
75688;HTU21D;64300;45.034;38.910;2022-10-16T16:54:51;16.14;64.56
75688;HTU21D;64300;45.034;38.910;2022-10-16T16:57:20;16.11;65.03
75688;HTU21D;64300;45.034;38.910;2022-10-16T16:59:46;16.07;65.08
75688;HTU21D;64300;45.034;38.910;2022-10-16T17:02:12;16.12;65.14
75688;HTU21D;64300;45.034;38.910;2022-10-16T17:04:38;16.03;65.51
75688;HTU21D;64300;45.034;38.910;2022-10-16T17:07:05;16.03;65.21
75688;HTU21D;64300;45.034;38.910;2022-10-16T17:09:33;16.00;65.45
75688;HTU21D;64300;45.034;38.910;2022-10-16T17:12:00;16.00;65.41
75688;HTU21D;64300;45.034;38.910;2022-10-16T17:14:26;15.95;66.31
75688;HTU21D;64300;45.034;38.910;2022-10-16T17:16:55;15.95;65.76
75688;HTU21D;64300;45.034;38.910;2022-10-16T17:19:21;15.92;65.69
75688;HTU21D;64300;45.034;38.910;2022-10-16T17:21:49;15.95;65.83
75688;HTU21D;64300;45.034;38.910;2022-10-16T17:24:15;15.90;65.91
75688;HTU21D;64300;45.034;38.910;2022-10-16T17:26:46;15.89;66.32
75688;HTU21D;64300;45.034;38.910;2022-10-16T17:29:17;15.88;66.23
75688;HTU21D;64300;45.034;38.910;2022-10-16T17:31:49;15.84;67.52